Time;durP1;ratioP1;P1;durP2;ratioP2;P2;SDS_P1;SDS_P2;PMS_P1;PMS_P2;Temp;Humidity;BMP_temperature;BMP_pressure;BME280_temperature;BME280_humidity;BME280_pressure;Samples;Min_cycle;Max_cycle;Signal;HPM_P1;HPM_P2
2021/06/07 00:00:58;;;;;;;;;;;;;;;13.33;60.23;97273.00;1716304;82;20115;-84
2021/06/07 00:03:24;;;;;;;;;;;;;;;13.31;60.61;97267.00;1750049;82;20134;-80
2021/06/07 00:05:51;;;;;;;;;;;;;;;13.28;60.01;97264.97;1750120;82;20107;-82
2021/06/07 00:08:17;;;;;;;;;;;;;;;13.26;59.28;97270.91;1750466;82;20115;-82
2021/06/07 00:10:43;;;;;;;;;;;;;;;13.27;59.96;97271.23;1750590;81;20380;-79
2021/06/07 00:13:11;;;;;;;;;;;;;;;13.28;59.83;97272.91;1777432;80;20092;-80
2021/06/07 00:15:39;;;;;;;;;;;;;;;13.28;60.69;97272.08;1783077;80;20103;-82
2021/06/07 00:18:06;;;;;;;;;;;;;;;13.32;60.90;97277.44;1768453;81;20098;-85
2021/06/07 00:20:38;;;;;;;;;;;;;;;13.35;62.00;97275.03;1768928;81;20439;-81
2021/06/07 00:23:05;;;;;;;;;;;;;;;13.37;60.87;97275.70;1768760;81;20177;-79
2021/06/07 00:25:32;;;;;;;;;;;;;;;13.40;61.02;97277.66;1768832;81;20198;-81
2021/06/07 00:27:59;;;;;;;;;;;;;;;13.42;61.19;97275.68;1766432;80;20147;-80
2021/06/07 00:30:25;;;;;;;;;;;;;;;13.46;60.66;97272.27;1764052;81;20444;-81
2021/06/07 00:32:52;;;;;;;;;;;;;;;13.49;61.53;97273.83;1763949;81;20189;-81
2021/06/07 00:35:21;;;;;;;;;;;;;;;13.51;61.31;97271.86;1763800;81;20195;-80
2021/06/07 00:37:47;;;;;;;;;;;;;;;13.52;61.16;97276.18;1763781;80;20135;-79
2021/06/07 00:40:15;;;;;;;;;;;;;;;13.51;60.37;97279.33;1774379;79;20197;-79
2021/06/07 00:42:41;;;;;;;;;;;;;;;13.51;60.97;97279.80;1800412;80;20132;-82
2021/06/07 00:45:10;;;;;;;;;;;;;;;13.52;60.17;97276.18;1800888;80;20384;-86
2021/06/07 00:47:38;;;;;;;;;;;;;;;13.51;60.44;97274.03;1801199;80;20172;-81
2021/06/07 00:50:09;;;;;;;;;;;;;;;13.48;60.40;97269.50;1768401;80;20105;-81
2021/06/07 00:52:35;;;;;;;;;;;;;;;13.45;60.10;97269.77;1800699;80;20100;-82
2021/06/07 00:55:01;;;;;;;;;;;;;;;13.41;60.38;97267.88;1801115;80;20191;-81
2021/06/07 00:57:27;;;;;;;;;;;;;;;13.41;61.64;97274.00;1800990;80;20108;-82
2021/06/07 00:59:53;;;;;;;;;;;;;;;13.41;60.27;97271.36;1799930;80;20135;-81
2021/06/07 01:02:19;;;;;;;;;;;;;;;13.37;61.42;97271.27;1792929;80;20591;-81
2021/06/07 01:04:45;;;;;;;;;;;;;;;13.36;61.42;97266.94;1762138;80;20371;-82
2021/06/07 01:07:12;;;;;;;;;;;;;;;13.34;60.90;97262.77;1752388;80;20158;-80
2021/06/07 01:09:38;;;;;;;;;;;;;;;13.32;61.52;97264.20;1748261;81;20158;-81
2021/06/07 01:12:05;;;;;;;;;;;;;;;13.30;60.95;97271.47;1748387;82;20111;-82
2021/06/07 01:14:31;;;;;;;;;;;;;;;13.26;60.74;97264.75;1748421;81;20392;-80
2021/06/07 01:16:57;;;;;;;;;;;;;;;13.18;60.21;97259.31;1751788;80;20249;-82
2021/06/07 01:19:26;;;;;;;;;;;;;;;13.10;61.42;97259.50;1757749;81;20107;-82
2021/06/07 01:21:56;;;;;;;;;;;;;;;13.05;60.32;97263.02;1758481;82;20178;-81
2021/06/07 01:24:22;;;;;;;;;;;;;;;12.96;61.22;97253.25;1757053;82;20086;-80
2021/06/07 01:26:48;;;;;;;;;;;;;;;12.90;60.79;97253.30;1752783;80;20127;-80
2021/06/07 01:29:14;;;;;;;;;;;;;;;12.81;61.05;97249.66;1749656;80;20126;-80
2021/06/07 01:31:40;;;;;;;;;;;;;;;12.75;60.86;97255.97;1758473;81;20094;-81
2021/06/07 01:34:06;;;;;;;;;;;;;;;12.69;62.58;97252.04;1758682;82;20090;-81
2021/06/07 01:36:32;;;;;;;;;;;;;;;12.65;61.96;97250.65;1758852;81;20122;-82
2021/06/07 01:38:58;;;;;;;;;;;;;;;12.61;61.87;97250.08;1758733;80;20118;-81
2021/06/07 01:41:25;;;;;;;;;;;;;;;12.60;61.46;97251.52;1758649;82;20422;-81
2021/06/07 01:43:51;;;;;;;;;;;;;;;12.58;62.47;97256.09;1775991;80;20416;-81
2021/06/07 01:46:17;;;;;;;;;;;;;;;12.55;62.69;97255.88;1774877;80;20143;-81
2021/06/07 01:48:44;;;;;;;;;;;;;;;12.53;62.61;97248.55;1754377;80;20164;-80
2021/06/07 01:51:10;;;;;;;;;;;;;;;12.52;62.64;97257.95;1758815;81;20099;-81
2021/06/07 01:53:37;;;;;;;;;;;;;;;12.48;61.92;97247.63;1781009;80;20411;-81
2021/06/07 01:56:07;;;;;;;;;;;;;;;12.46;62.07;97252.70;1758778;82;20107;-79
2021/06/07 01:58:34;;;;;;;;;;;;;;;12.44;62.17;97256.80;1758992;82;20432;-80
2021/06/07 02:01:06;;;;;;;;;;;;;;;12.45;63.57;97255.84;1742314;81;20102;-80
2021/06/07 02:03:33;;;;;;;;;;;;;;;12.46;63.30;97260.16;1725500;82;20107;-81
2021/06/07 02:06:01;;;;;;;;;;;;;;;12.48;62.44;97260.02;1725398;82;20111;-81
2021/06/07 02:08:30;;;;;;;;;;;;;;;12.50;63.00;97259.41;1730598;83;20487;-81
2021/06/07 02:10:58;;;;;;;;;;;;;;;12.53;63.23;97253.84;1730369;83;20136;-81
2021/06/07 02:13:25;;;;;;;;;;;;;;;12.58;62.58;97246.83;1725316;82;20130;-80
2021/06/07 02:15:55;;;;;;;;;;;;;;;12.62;63.67;97245.61;1722555;83;20107;-79
2021/06/07 02:18:21;;;;;;;;;;;;;;;12.66;62.52;97243.07;1729586;83;20143;-81
2021/06/07 02:20:47;;;;;;;;;;;;;;;12.74;62.55;97249.84;1732456;83;20122;-81
2021/06/07 02:23:13;;;;;;;;;;;;;;;12.78;62.94;97251.24;1728220;83;20162;-80
2021/06/07 02:25:40;;;;;;;;;;;;;;;12.84;62.37;97245.08;1725762;82;20437;-79
2021/06/07 02:28:11;;;;;;;;;;;;;;;12.86;64.76;97243.97;1725274;83;20416;-79
2021/06/07 02:30:37;;;;;;;;;;;;;;;12.90;62.68;97249.83;1724984;82;20127;-80
2021/06/07 02:33:04;;;;;;;;;;;;;;;12.90;62.85;97251.16;1731567;83;20107;-82
2021/06/07 02:35:30;;;;;;;;;;;;;;;12.90;63.24;97249.83;1726278;83;20098;-81
2021/06/07 02:37:57;;;;;;;;;;;;;;;12.88;62.33;97253.94;1724871;83;20111;-82
2021/06/07 02:40:26;;;;;;;;;;;;;;;12.87;63.13;97256.70;1724927;83;20099;-80
2021/06/07 02:42:53;;;;;;;;;;;;;;;12.83;62.95;97257.45;1724850;82;20099;-79
2021/06/07 02:45:20;;;;;;;;;;;;;;;12.79;62.92;97250.27;1727854;83;20119;-82
2021/06/07 02:47:48;;;;;;;;;;;;;;;12.75;62.96;97259.47;1731717;83;20139;-82
2021/06/07 02:50:17;;;;;;;;;;;;;;;12.74;62.95;97262.22;1725116;82;20111;-83
2021/06/07 02:52:48;;;;;;;;;;;;;;;12.73;64.34;97260.55;1725061;82;20111;-84
2021/06/07 02:55:29;;;;;;;;;;;;;;;12.71;62.77;97264.66;1726209;82;20103;-86
2021/06/07 02:57:57;;;;;;;;;;;;;;;12.71;62.85;97259.86;1733011;83;20111;-81
2021/06/07 03:00:27;;;;;;;;;;;;;;;12.71;62.51;97255.89;1743076;79;20093;-81
2021/06/07 03:02:55;;;;;;;;;;;;;;;12.70;62.52;97260.83;1756996;80;20099;-79
2021/06/07 03:05:22;;;;;;;;;;;;;;;12.69;62.29;97257.83;1790517;80;20104;-82
2021/06/07 03:07:48;;;;;;;;;;;;;;;12.70;62.43;97266.12;1792204;80;20420;-80
2021/06/07 03:10:14;;;;;;;;;;;;;;;12.69;62.30;97263.12;1792222;80;20096;-80
2021/06/07 03:12:40;;;;;;;;;;;;;;;12.69;61.86;97261.30;1792229;80;20099;-80
2021/06/07 03:15:09;;;;;;;;;;;;;;;12.72;62.06;97259.72;1782628;80;20091;-82
2021/06/07 03:17:35;;;;;;;;;;;;;;;12.74;62.34;97264.40;1758023;82;20095;-78
2021/06/07 03:20:07;;;;;;;;;;;;;;;12.78;63.51;97271.08;1784837;80;20377;-81
2021/06/07 03:22:34;;;;;;;;;;;;;;;12.81;61.81;97264.21;1791858;80;20124;-82
2021/06/07 03:25:01;;;;;;;;;;;;;;;12.87;62.51;97263.31;1792027;80;20084;-85
2021/06/07 03:27:27;;;;;;;;;;;;;;;12.92;62.01;97261.12;1772024;80;20119;-79
2021/06/07 03:29:53;;;;;;;;;;;;;;;12.96;62.43;97261.19;1747223;82;20107;-81
2021/06/07 03:32:20;;;;;;;;;;;;;;;13.02;62.61;97267.28;1747355;81;20111;-81
2021/06/07 03:34:48;;;;;;;;;;;;;;;13.07;63.25;97265.06;1778604;80;20084;-80
2021/06/07 03:37:15;;;;;;;;;;;;;;;13.13;63.20;97268.98;1791885;80;20124;-80
2021/06/07 03:39:41;;;;;;;;;;;;;;;13.20;62.12;97271.92;1791936;80;20449;-79
2021/06/07 03:42:08;;;;;;;;;;;;;;;13.27;61.50;97267.76;1791692;80;20452;-81
2021/06/07 03:44:34;;;;;;;;;;;;;;;13.33;62.18;97272.50;1791528;80;20096;-79
2021/06/07 03:47:01;;;;;;;;;;;;;;;13.41;62.00;97270.53;1758546;80;20095;-88
2021/06/07 03:49:28;;;;;;;;;;;;;;;13.50;61.92;97271.53;1746990;82;20459;-81
2021/06/07 03:51:54;;;;;;;;;;;;;;;13.76;62.18;97277.61;1746949;82;20499;-81
2021/06/07 03:54:20;;;;;;;;;;;;;;;14.25;61.92;97274.42;1747051;82;20445;-80
2021/06/07 03:56:46;;;;;;;;;;;;;;;14.84;61.45;97272.98;1746665;82;20127;-79
2021/06/07 03:59:12;;;;;;;;;;;;;;;15.44;60.63;97267.21;1754081;80;20130;-81
2021/06/07 04:01:38;;;;;;;;;;;;;;;16.06;59.66;97263.82;1776975;80;20112;-87
2021/06/07 04:04:05;;;;;;;;;;;;;;;16.72;59.24;97263.44;1756095;80;20459;-80
2021/06/07 04:06:31;;;;;;;;;;;;;;;17.39;59.09;97261.42;1747034;81;20490;-81
2021/06/07 04:08:59;;;;;;;;;;;;;;;18.02;56.37;97261.87;1747062;82;20400;-80
2021/06/07 04:11:25;;;;;;;;;;;;;;;18.64;55.87;97272.98;1747125;81;20400;-83
2021/06/07 04:13:52;;;;;;;;;;;;;;;19.04;53.66;97253.36;1779664;80;20148;-82
2021/06/07 04:16:18;;;;;;;;;;;;;;;19.66;52.61;97274.94;1791662;80;20131;-87
2021/06/07 04:18:44;;;;;;;;;;;;;;;20.20;53.56;97274.05;1791770;80;20096;-85
2021/06/07 04:21:11;;;;;;;;;;;;;;;20.69;49.72;97277.29;1788380;80;20108;-82
2021/06/07 04:23:37;;;;;;;;;;;;;;;21.24;48.71;97280.56;1791667;80;20096;-82
2021/06/07 04:26:03;;;;;;;;;;;;;;;21.70;49.31;97284.83;1791739;80;20100;-85
2021/06/07 04:28:32;;;;;;;;;;;;;;;22.22;51.16;97282.05;1791413;80;20096;-83
2021/06/07 04:30:58;;;;;;;;;;;;;;;22.76;44.54;97278.77;1791500;80;20131;-80
2021/06/07 04:33:24;;;;;;;;;;;;;;;23.14;42.55;97278.87;1790528;80;20093;-81
2021/06/07 04:35:50;;;;;;;;;;;;;;;23.56;44.74;97281.55;1791163;80;20089;-80
2021/06/07 04:38:16;;;;;;;;;;;;;;;23.94;44.62;97277.53;1791520;80;20397;-84
2021/06/07 04:40:44;;;;;;;;;;;;;;;24.30;39.56;97277.70;1788346;80;20104;-83
2021/06/07 04:43:12;;;;;;;;;;;;;;;24.71;37.87;97275.30;1791391;80;20137;-81
2021/06/07 04:45:42;;;;;;;;;;;;;;;25.14;38.87;97279.36;1791540;80;20127;-82
2021/06/07 04:48:09;;;;;;;;;;;;;;;25.49;37.69;97280.93;1791713;80;20184;-82
2021/06/07 04:50:36;;;;;;;;;;;;;;;25.79;36.06;97277.67;1791545;80;20397;-83
2021/06/07 04:53:04;;;;;;;;;;;;;;;26.00;37.06;97269.75;1790669;80;20412;-83
2021/06/07 04:55:39;;;;;;;;;;;;;;;26.22;36.04;97277.00;1791518;80;20381;-82
2021/06/07 04:58:15;;;;;;;;;;;;;;;26.59;42.20;97285.72;1791483;80;20203;-82
2021/06/07 05:00:44;;;;;;;;;;;;;;;26.89;36.66;97279.14;1791529;79;20112;-83
2021/06/07 05:03:10;;;;;;;;;;;;;;;27.13;33.66;97282.00;1791396;80;20084;-81
2021/06/07 05:05:36;;;;;;;;;;;;;;;27.53;35.59;97278.86;1791798;80;20100;-81
2021/06/07 05:08:03;;;;;;;;;;;;;;;27.85;32.86;97274.56;1791488;80;20096;-87
2021/06/07 05:10:30;;;;;;;;;;;;;;;28.18;31.02;97269.73;1751285;80;20317;-81
2021/06/07 05:12:56;;;;;;;;;;;;;;;28.47;29.98;97272.09;1757162;82;20150;-82
2021/06/07 05:15:22;;;;;;;;;;;;;;;28.82;32.03;97267.75;1756843;80;20188;-83
2021/06/07 05:17:48;;;;;;;;;;;;;;;29.13;29.35;97273.34;1747199;82;20564;-79
2021/06/07 05:20:20;;;;;;;;;;;;;;;29.55;27.91;97272.84;1747092;81;20205;-84
2021/06/07 05:22:48;;;;;;;;;;;;;;;29.84;28.44;97275.02;1748535;80;20193;-82
2021/06/07 05:25:15;;;;;;;;;;;;;;;30.16;28.69;97275.89;1791320;80;20181;-81
2021/06/07 05:27:42;;;;;;;;;;;;;;;30.36;27.24;97278.67;1791430;80;20112;-84
2021/06/07 05:30:09;;;;;;;;;;;;;;;30.63;27.40;97276.67;1754254;80;20146;-80
2021/06/07 05:32:36;;;;;;;;;;;;;;;30.90;27.63;97275.45;1750032;80;20123;-82
2021/06/07 05:35:04;;;;;;;;;;;;;;;31.03;27.00;97276.98;1747230;81;20092;-81
2021/06/07 05:37:31;;;;;;;;;;;;;;;31.29;25.38;97277.34;1753729;80;20199;-82
2021/06/07 05:39:57;;;;;;;;;;;;;;;31.37;27.19;97281.54;1791349;80;20124;-82
2021/06/07 05:42:23;;;;;;;;;;;;;;;31.59;25.58;97284.25;1753702;80;20127;-81
2021/06/07 05:44:49;;;;;;;;;;;;;;;31.85;24.70;97271.73;1747144;82;20100;-80
2021/06/07 05:47:15;;;;;;;;;;;;;;;31.97;24.19;97281.67;1747175;82;20099;-79
2021/06/07 05:49:41;;;;;;;;;;;;;;;32.12;25.22;97279.08;1747241;82;20586;-82
2021/06/07 05:52:10;;;;;;;;;;;;;;;32.45;23.94;97273.66;1747111;81;20463;-82
2021/06/07 05:54:37;;;;;;;;;;;;;;;32.76;25.32;97280.16;1750685;80;20403;-81
2021/06/07 05:57:05;;;;;;;;;;;;;;;32.85;25.09;97277.80;1757160;81;20817;-81
2021/06/07 05:59:31;;;;;;;;;;;;;;;33.00;23.42;97276.52;1757173;82;20106;-82
2021/06/07 06:01:57;;;;;;;;;;;;;;;33.22;22.24;97276.91;1741019;80;20149;-80
2021/06/07 06:04:24;;;;;;;;;;;;;;;33.34;21.80;97279.45;1731440;81;20575;-80
2021/06/07 06:06:50;;;;;;;;;;;;;;;33.44;21.53;97280.05;1731324;83;20106;-86
2021/06/07 06:09:16;;;;;;;;;;;;;;;33.70;26.14;97286.40;1772411;81;20093;-81
2021/06/07 06:11:43;;;;;;;;;;;;;;;33.79;25.62;97286.15;1777698;80;20104;-83
2021/06/07 06:14:09;;;;;;;;;;;;;;;33.89;21.18;97284.03;1769992;80;20093;-79
2021/06/07 06:16:36;;;;;;;;;;;;;;;34.09;20.92;97283.80;1777610;81;20105;-81
2021/06/07 06:19:02;;;;;;;;;;;;;;;33.99;21.86;97283.78;1777481;81;20414;-85
2021/06/07 06:21:28;;;;;;;;;;;;;;;33.45;24.13;97289.33;1748683;81;20439;-82
2021/06/07 06:23:55;;;;;;;;;;;;;;;32.58;24.15;97291.48;1731659;81;20103;-82
2021/06/07 06:26:23;;;;;;;;;;;;;;;32.17;23.56;97294.66;1762879;81;20116;-80
2021/06/07 06:28:50;;;;;;;;;;;;;;;31.72;23.51;97291.23;1777861;81;20160;-84
2021/06/07 06:31:17;;;;;;;;;;;;;;;31.62;26.48;97290.00;1778094;80;20157;-82
2021/06/07 06:33:43;;;;;;;;;;;;;;;31.71;27.00;97290.39;1775166;80;20148;-83
2021/06/07 06:36:10;;;;;;;;;;;;;;;31.93;25.41;97287.63;1777770;81;20109;-82
2021/06/07 06:38:37;;;;;;;;;;;;;;;32.28;27.31;97293.71;1777519;81;20180;-81
2021/06/07 06:41:04;;;;;;;;;;;;;;;31.85;25.62;97287.28;1777567;80;20160;-83
2021/06/07 06:43:30;;;;;;;;;;;;;;;32.01;24.91;97289.08;1777230;80;20100;-81
2021/06/07 06:45:58;;;;;;;;;;;;;;;32.15;25.95;97290.03;1773143;81;20179;-86
2021/06/07 06:48:25;;;;;;;;;;;;;;;31.14;25.67;97296.47;1743842;82;20127;-82
2021/06/07 06:50:51;;;;;;;;;;;;;;;30.25;27.49;97294.52;1753971;81;20393;-81
2021/06/07 06:53:19;;;;;;;;;;;;;;;29.71;28.50;97291.62;1777616;80;20206;-82
2021/06/07 06:55:46;;;;;;;;;;;;;;;29.26;28.67;97291.25;1777678;80;20077;-83
2021/06/07 06:58:13;;;;;;;;;;;;;;;29.49;28.27;97290.91;1777474;80;20109;-82
2021/06/07 07:00:40;;;;;;;;;;;;;;;30.11;29.02;97295.36;1748570;80;20125;-81
2021/06/07 07:03:09;;;;;;;;;;;;;;;30.37;28.59;97295.27;1736763;81;20099;-83
2021/06/07 07:05:35;;;;;;;;;;;;;;;30.39;28.78;97286.34;1755577;82;20123;-81
2021/06/07 07:08:03;;;;;;;;;;;;;;;30.55;27.67;97289.33;1755241;82;20111;-82
2021/06/07 07:10:29;;;;;;;;;;;;;;;30.36;27.57;97289.55;1754914;82;20143;-81
2021/06/07 07:12:55;;;;;;;;;;;;;;;30.53;28.67;97289.59;1755493;82;20096;-81
2021/06/07 07:15:21;;;;;;;;;;;;;;;29.97;28.24;97294.32;1755290;82;20103;-80
2021/06/07 07:17:48;;;;;;;;;;;;;;;29.47;28.80;97293.03;1758063;82;20453;-81
2021/06/07 07:20:14;;;;;;;;;;;;;;;29.09;29.22;97293.05;1760545;82;20414;-81
2021/06/07 07:22:42;;;;;;;;;;;;;;;29.12;29.59;97289.33;1758475;82;20115;-83
2021/06/07 07:25:09;;;;;;;;;;;;;;;29.48;29.86;97293.33;1755070;82;20547;-81
2021/06/07 07:27:37;;;;;;;;;;;;;;;29.83;28.53;97291.56;1755302;81;20470;-81
2021/06/07 07:30:12;;;;;;;;;;;;;;;29.88;28.72;97290.31;1755333;82;20099;-83
2021/06/07 07:32:40;;;;;;;;;;;;;;;30.33;28.40;97293.59;1743126;82;20182;-84
2021/06/07 07:35:07;;;;;;;;;;;;;;;30.52;27.25;97290.66;1727973;82;20111;-82
2021/06/07 07:37:34;;;;;;;;;;;;;;;30.30;27.84;97287.82;1725701;81;20154;-83
2021/06/07 07:40:03;;;;;;;;;;;;;;;29.79;27.35;97286.34;1754025;80;20193;-87
2021/06/07 07:42:29;;;;;;;;;;;;;;;28.78;27.91;97289.64;1754907;82;20157;-85
2021/06/07 07:44:55;;;;;;;;;;;;;;;27.85;28.83;97289.45;1739770;81;20128;-86
2021/06/07 07:47:22;;;;;;;;;;;;;;;27.95;29.58;97292.98;1723888;82;20184;-88
2021/06/07 07:49:48;;;;;;;;;;;;;;;28.48;29.47;97285.11;1733295;82;20195;-83
2021/06/07 07:52:14;;;;;;;;;;;;;;;29.05;29.11;97287.80;1760256;82;20130;-85
2021/06/07 07:54:40;;;;;;;;;;;;;;;29.58;28.44;97285.94;1754222;82;20107;-84
2021/06/07 07:57:07;;;;;;;;;;;;;;;29.79;27.56;97288.51;1756222;82;20397;-84
2021/06/07 07:59:34;;;;;;;;;;;;;;;29.64;27.56;97282.80;1744873;82;20167;-84
2021/06/07 08:02:00;;;;;;;;;;;;;;;29.10;27.46;97287.37;1737009;82;20095;-85
2021/06/07 08:04:29;;;;;;;;;;;;;;;28.76;28.81;97288.53;1712610;84;20101;-86
2021/06/07 08:06:55;;;;;;;;;;;;;;;28.89;27.88;97286.11;1734317;81;20095;-84
2021/06/07 08:09:21;;;;;;;;;;;;;;;29.21;27.77;97288.41;1773686;80;20088;-87
2021/06/07 08:11:47;;;;;;;;;;;;;;;29.34;27.39;97289.25;1747280;80;20216;-86
2021/06/07 08:14:15;;;;;;;;;;;;;;;29.45;27.70;97286.50;1727271;83;20140;-86
2021/06/07 08:16:46;;;;;;;;;;;;;;;29.67;27.07;97284.48;1728064;83;20441;-84
2021/06/07 08:19:13;;;;;;;;;;;;;;;29.91;26.33;97280.30;1741942;81;20144;-84
2021/06/07 08:21:39;;;;;;;;;;;;;;;30.09;26.55;97279.83;1760021;80;20253;-84
2021/06/07 08:24:07;;;;;;;;;;;;;;;30.32;27.51;97288.37;1760302;80;20104;-84
2021/06/07 08:26:34;;;;;;;;;;;;;;;29.31;26.79;97287.81;1760155;81;20147;-84
2021/06/07 08:29:00;;;;;;;;;;;;;;;28.89;27.24;97280.68;1757556;80;20468;-85
2021/06/07 08:31:26;;;;;;;;;;;;;;;29.07;27.90;97283.77;1759614;80;20160;-83
2021/06/07 08:33:53;;;;;;;;;;;;;;;29.34;26.72;97277.84;1760708;80;20159;-83
2021/06/07 08:36:19;;;;;;;;;;;;;;;29.57;27.06;97279.67;1760435;81;20152;-85
2021/06/07 08:38:46;;;;;;;;;;;;;;;29.77;27.85;97281.13;1760190;81;20175;-88
2021/06/07 08:41:13;;;;;;;;;;;;;;;29.84;27.08;97282.34;1760205;80;20128;-86
2021/06/07 08:43:41;;;;;;;;;;;;;;;29.86;27.15;97285.11;1760369;81;20160;-86
2021/06/07 08:46:12;;;;;;;;;;;;;;;29.94;27.09;97283.93;1760835;80;20151;-85
2021/06/07 08:48:39;;;;;;;;;;;;;;;29.74;26.87;97284.35;1760490;80;20123;-82
2021/06/07 08:51:06;;;;;;;;;;;;;;;29.27;28.20;97288.83;1760740;80;20152;-80
2021/06/07 08:53:33;;;;;;;;;;;;;;;28.64;28.14;97279.53;1761429;80;20428;-85
2021/06/07 08:55:59;;;;;;;;;;;;;;;28.10;29.06;97280.91;1740732;81;20154;-88
2021/06/07 08:58:26;;;;;;;;;;;;;;;27.39;29.22;97278.67;1721757;82;20298;-82
2021/06/07 09:00:53;;;;;;;;;;;;;;;27.23;29.67;97290.42;1723540;83;20154;-84
2021/06/07 09:03:20;;;;;;;;;;;;;;;26.64;30.51;97275.91;1721667;82;20784;-84
2021/06/07 09:05:53;;;;;;;;;;;;;;;26.27;31.53;97280.39;1722165;83;20173;-85
2021/06/07 09:08:20;;;;;;;;;;;;;;;26.48;31.11;97276.47;1720824;82;20135;-85
2021/06/07 09:10:49;;;;;;;;;;;;;;;26.75;30.46;97275.72;1732501;82;20149;-85
2021/06/07 09:13:16;;;;;;;;;;;;;;;27.11;30.53;97265.16;1749207;82;20184;-84
2021/06/07 09:15:48;;;;;;;;;;;;;;;27.46;30.66;97258.34;1697812;82;20365;-84
2021/06/07 09:18:17;;;;;;;;;;;;;;;27.81;30.40;97267.13;1692141;84;20231;-84
2021/06/07 09:20:44;;;;;;;;;;;;;;;28.12;28.91;97267.97;1677593;85;20144;-84
2021/06/07 09:23:13;;;;;;;;;;;;;;;28.38;29.51;97259.95;1691731;85;20493;-86
2021/06/07 09:25:44;;;;;;;;;;;;;;;27.98;27.39;97257.28;1691504;85;20196;-85
2021/06/07 09:28:19;;;;;;;;;;;;;;;27.63;27.72;97259.35;1691774;84;20124;-84
2021/06/07 09:30:52;;;;;;;;;;;;;;;27.30;27.55;97261.09;1701244;82;20435;-83
2021/06/07 09:33:25;;;;;;;;;;;;;;;26.40;28.53;97227.61;1736326;82;20131;-82
2021/06/07 09:36:12;;;;;;;;;;;;;;;26.49;29.21;97251.92;1738336;82;20123;-84
2021/06/07 09:38:59;;;;;;;;;;;;;;;26.19;29.69;97256.66;1713713;82;20156;-87
2021/06/07 09:41:28;;;;;;;;;;;;;;;26.02;29.69;97256.33;1718456;82;20136;-84
2021/06/07 09:43:58;;;;;;;;;;;;;;;25.71;30.15;97256.61;1729996;82;20139;-86
2021/06/07 09:46:26;;;;;;;;;;;;;;;25.45;30.43;97251.36;1735993;82;20166;-86
2021/06/07 09:49:10;;;;;;;;;;;;;;;25.50;30.55;97251.56;1716467;82;20265;-84
2021/06/07 09:51:38;;;;;;;;;;;;;;;25.43;30.63;97246.19;1734715;81;20293;-86
2021/06/07 09:54:04;;;;;;;;;;;;;;;25.37;31.06;97243.80;1730789;82;20142;-84
2021/06/07 09:56:31;;;;;;;;;;;;;;;25.47;31.18;97244.73;1731672;82;20503;-87
2021/06/07 09:58:58;;;;;;;;;;;;;;;25.23;31.24;97241.67;1733013;82;20474;-87
2021/06/07 10:01:31;;;;;;;;;;;;;;;25.34;31.28;97238.82;1728050;82;20259;-85
2021/06/07 10:04:00;;;;;;;;;;;;;;;25.29;32.32;97249.97;1740533;82;20202;-86
2021/06/07 10:06:36;;;;;;;;;;;;;;;25.51;32.02;97243.78;1744900;82;20119;-88
2021/06/07 10:09:12;;;;;;;;;;;;;;;25.69;32.24;97247.09;1744815;81;20158;-86
2021/06/07 10:11:45;;;;;;;;;;;;;;;25.84;32.20;97242.23;1744736;82;20474;-84
2021/06/07 10:14:15;;;;;;;;;;;;;;;26.00;32.08;97242.20;1745063;81;20187;-86
2021/06/07 10:17:01;;;;;;;;;;;;;;;26.15;31.77;97237.06;1748343;81;20505;-83
2021/06/07 10:19:32;;;;;;;;;;;;;;;26.19;31.21;97234.20;1747356;82;20461;-83
2021/06/07 10:21:58;;;;;;;;;;;;;;;26.17;30.42;97232.27;1738241;81;20150;-84
2021/06/07 10:24:25;;;;;;;;;;;;;;;26.18;30.75;97235.25;1720289;82;20143;-83
2021/06/07 10:26:51;;;;;;;;;;;;;;;26.27;31.12;97231.77;1711291;83;20167;-85
2021/06/07 10:29:20;;;;;;;;;;;;;;;26.37;31.27;97228.04;1712024;84;20454;-83
2021/06/07 10:31:46;;;;;;;;;;;;;;;26.41;30.66;97225.18;1712943;84;20272;-82
2021/06/07 10:34:13;;;;;;;;;;;;;;;26.45;31.46;97227.76;1714455;81;20123;-82
2021/06/07 10:36:51;;;;;;;;;;;;;;;26.59;30.83;97228.96;1778188;81;20128;-83
2021/06/07 10:39:18;;;;;;;;;;;;;;;26.80;31.18;97227.22;1770821;80;20500;-81
2021/06/07 10:41:50;;;;;;;;;;;;;;;26.98;30.80;97222.05;1745267;81;20265;-83
2021/06/07 10:44:43;;;;;;;;;;;;;;;27.04;30.17;97217.09;1775338;81;20165;-84
2021/06/07 10:47:15;;;;;;;;;;;;;;;27.16;30.68;97211.73;1737466;81;20182;-81
2021/06/07 10:50:06;;;;;;;;;;;;;;;27.32;30.16;97208.44;1751139;81;20825;-86
2021/06/07 10:52:50;;;;;;;;;;;;;;;27.38;30.06;97199.39;1739142;81;20178;-85
2021/06/07 10:55:27;;;;;;;;;;;;;;;27.38;29.05;97206.66;1754948;81;20140;-81
2021/06/07 10:58:02;;;;;;;;;;;;;;;27.39;29.60;97198.34;1773263;81;20148;-84
2021/06/07 11:00:31;;;;;;;;;;;;;;;27.51;29.31;97198.41;1754585;81;20158;-85
2021/06/07 11:03:00;;;;;;;;;;;;;;;27.64;29.42;97196.03;1749366;81;20190;-84
2021/06/07 11:05:33;;;;;;;;;;;;;;;27.76;29.23;97185.23;1734998;81;20158;-83
2021/06/07 11:08:08;;;;;;;;;;;;;;;27.78;29.36;97190.44;1736776;81;20158;-83
2021/06/07 11:10:43;;;;;;;;;;;;;;;27.78;28.12;97191.79;1738290;82;20182;-85
2021/06/07 11:13:12;;;;;;;;;;;;;;;27.79;28.22;97190.19;1734721;82;20182;-83
2021/06/07 11:15:55;;;;;;;;;;;;;;;27.82;28.39;97191.09;1749830;82;20138;-84
2021/06/07 11:18:30;;;;;;;;;;;;;;;27.82;27.94;97179.42;1750285;82;20505;-82
2021/06/07 11:21:00;;;;;;;;;;;;;;;27.88;28.26;97178.52;1750031;81;20269;-82
2021/06/07 11:23:31;;;;;;;;;;;;;;;27.68;27.14;97167.45;1750160;81;20138;-86
2021/06/07 11:25:58;;;;;;;;;;;;;;;27.78;27.06;97172.84;1744879;81;20146;-86
2021/06/07 11:28:42;;;;;;;;;;;;;;;27.58;25.72;97177.48;1729543;81;20133;-85
2021/06/07 11:31:21;;;;;;;;;;;;;;;27.25;26.90;97176.05;1729606;83;20150;-82
2021/06/07 11:33:56;;;;;;;;;;;;;;;27.10;27.11;97171.55;1730007;81;20129;-85
2021/06/07 11:36:51;;;;;;;;;;;;;;;27.02;26.35;97165.94;1751440;81;20207;-86
2021/06/07 11:39:35;;;;;;;;;;;;;;;26.94;27.10;97162.20;1769605;80;20237;-85
2021/06/07 11:42:03;;;;;;;;;;;;;;;26.87;26.90;97163.63;1775635;80;20204;-83
2021/06/07 11:44:56;;;;;;;;;;;;;;;26.76;28.07;97163.83;1775736;80;20192;-86
2021/06/07 11:47:43;;;;;;;;;;;;;;;26.61;27.70;97171.46;1754725;81;20177;-83
2021/06/07 11:50:12;;;;;;;;;;;;;;;26.49;28.46;97160.58;1757715;80;20464;-83
2021/06/07 11:52:47;;;;;;;;;;;;;;;26.47;28.08;97162.67;1742294;82;20135;-84
2021/06/07 11:55:32;;;;;;;;;;;;;;;26.48;28.15;97161.12;1742268;82;20190;-82
2021/06/07 11:58:08;;;;;;;;;;;;;;;26.42;27.94;97162.53;1753141;81;20162;-85
2021/06/07 12:00:39;;;;;;;;;;;;;;;26.57;28.31;97158.92;1736308;81;20169;-84
2021/06/07 12:03:07;;;;;;;;;;;;;;;26.32;27.91;97158.47;1776991;80;20512;-79
2021/06/07 12:05:33;;;;;;;;;;;;;;;26.34;28.52;97148.77;1781130;81;20200;-84
2021/06/07 12:08:04;;;;;;;;;;;;;;;26.42;28.78;97147.12;1780578;81;20235;-83
2021/06/07 12:10:33;;;;;;;;;;;;;;;26.35;29.30;97149.08;1780785;80;20203;-85
2021/06/07 12:13:17;;;;;;;;;;;;;;;26.28;29.62;97149.67;1780873;80;20167;-82
2021/06/07 12:15:47;;;;;;;;;;;;;;;26.15;29.32;97143.88;1780474;81;20164;-83
2021/06/07 12:18:13;;;;;;;;;;;;;;;26.04;29.09;97138.62;1780545;80;20161;-84
2021/06/07 12:20:40;;;;;;;;;;;;;;;26.07;29.74;97116.59;1753697;81;20147;-84
2021/06/07 12:23:07;;;;;;;;;;;;;;;26.30;29.48;97127.33;1766355;81;20818;-82
2021/06/07 12:28:17;;;;;;;;;;;;;;;26.39;29.43;97118.39;1753246;81;20163;-84
2021/06/07 12:28:19;;;;;;;;;;;;;;;26.53;29.66;97126.66;1764231;80;20132;-84
2021/06/07 12:30:53;;;;;;;;;;;;;;;26.70;29.66;97125.52;1773720;79;20139;-83
2021/06/07 12:33:27;;;;;;;;;;;;;;;26.79;28.87;97128.78;1768742;80;20449;-83
2021/06/07 12:35:54;;;;;;;;;;;;;;;26.66;28.23;97118.92;1780370;80;20128;-84
2021/06/07 12:38:25;;;;;;;;;;;;;;;26.53;28.79;97119.06;1750814;81;20118;-85
2021/06/07 12:40:54;;;;;;;;;;;;;;;26.46;28.95;97128.08;1750586;81;20194;-85
2021/06/07 12:43:26;;;;;;;;;;;;;;;26.35;29.23;97122.06;1759309;80;20215;-83
2021/06/07 12:46:02;;;;;;;;;;;;;;;26.24;28.97;97124.98;1754929;81;20161;-84
2021/06/07 12:48:35;;;;;;;;;;;;;;;26.18;29.22;97125.35;1761522;80;20136;-84
2021/06/07 12:51:09;;;;;;;;;;;;;;;26.28;29.10;97132.12;1779798;80;20147;-84
2021/06/07 12:53:48;;;;;;;;;;;;;;;26.19;29.33;97120.26;1760173;80;20225;-82
2021/06/07 12:56:20;;;;;;;;;;;;;;;26.23;29.04;97127.89;1753551;82;20154;-86